Lithonia, GA (30038)

4:56 AM EDT on August 29, 2016 (GMT -0400)
MesoWest | | Change Station

Elev 921 ft 33.71 °N, 84.21 °W | Updated 36 minutes ago

Mostly Cloudy
Mostly Cloudy
74 °F
Feels Like 75 °F
N
2
Wind Variable Wind from NE
Gusts 4.0 mph

Today
High -- | Low -- °F
--% Chance of Precip.
Yesterday
High -- | Low -- °F
Precip. -- in
Pressure 30.08 in
Visibility 10.0 miles
Clouds Mostly Cloudy 3900 ft
Heat Index 75 °F
Dew Point 66 °F
Humidity 76%
Rainfall in
Snow Depth Not available.
7:08 AM 8:05 PM
Waning Crescent, 10% visible
METAR KATL 290852Z 07007KT 10SM BKN039 24/19 A3012 RMK AO2 SLP186 T02440194 55001
Pressure 30.08 in
Visibility 10.0 miles
Clouds Mostly Cloudy 3900 ft
Heat Index 75 °F
Dew Point 66 °F
Humidity 76%
Rainfall in
Snow Depth Not available.
7:08 AM 8:05 PM
Waning Crescent, 10% visible
METAR KATL 290852Z 07007KT 10SM BKN039 24/19 A3012 RMK AO2 SLP186 T02440194 55001
The area of storminess, previously known as Invest 99-L that we were monitoring for days, finally developed into Tropical Depression Nine near the Florida Keys on Sunday evening.

There remains a large degree of uncertainty around how much this system will strengthen once it gets into the southeast Gulf of Mexico. For now, the clockwise flow around upper-level high pressure over the eastern United States will steer Tropical Depression Nine west-northwest toward the Gulf. That high will weaken by Tuesday, allowing this system to move more north, and then eventually northeast the next several days on a path toward the Florida Gulf Coast.

10-Day Weather Forecast

Almanac

Astronomy

Aug. 29, 2016 Rise Set
Actual Time
Civil Twilight
Nautical Twilight
Astronomical Twilight
Moon
Length of Visible Light
Length of Day
Tomorrow will be .
, % of the Moon is Illuminated

Today's Extremes

State Highs State Lows

Community

WunderPhotos

Upload Photos

1,935,800 photos uploaded!

WunderBlog® & News

Nearby

Air Quality

  Air Quality AQ Index Pollutant
Not available.

Snow Depth

Station Depth Elevation

Earthquake Activity

City Distance Mag. Time & Date
Minimum magnitude displayed is 2.5.

Coastal Water Temperatures

Place Temperature

Stations

Nearby Weather Stations

Station Location Temp. Windchill Dew Point Humidity Wind Precip. Elev Updated Type
                   

Watches & Warnings

There are currently no watches in effect.